sensor_id;sensor_type;location;lat;lon;timestamp;P1;durP1;ratioP1;P2;durP2;ratioP2
9481;SDS011;4779;48.062;11.672;2024-02-26T00:02:18;4.43;;;3.53;;
9481;SDS011;4779;48.062;11.672;2024-02-26T00:04:45;5.03;;;3.90;;
9481;SDS011;4779;48.062;11.672;2024-02-26T00:07:12;3.80;;;3.50;;
9481;SDS011;4779;48.062;11.672;2024-02-26T00:09:40;4.07;;;3.30;;
9481;SDS011;4779;48.062;11.672;2024-02-26T00:12:07;4.43;;;3.40;;
9481;SDS011;4779;48.062;11.672;2024-02-26T00:14:35;4.73;;;3.53;;
9481;SDS011;4779;48.062;11.672;2024-02-26T00:17:02;3.57;;;3.10;;
9481;SDS011;4779;48.062;11.672;2024-02-26T00:19:29;4.30;;;3.20;;
9481;SDS011;4779;48.062;11.672;2024-02-26T00:21:56;3.90;;;3.50;;
9481;SDS011;4779;48.062;11.672;2024-02-26T00:24:24;3.67;;;3.30;;
9481;SDS011;4779;48.062;11.672;2024-02-26T00:26:51;4.27;;;3.27;;
9481;SDS011;4779;48.062;11.672;2024-02-26T00:29:19;5.33;;;3.40;;
9481;SDS011;4779;48.062;11.672;2024-02-26T00:31:48;5.47;;;3.30;;
9481;SDS011;4779;48.062;11.672;2024-02-26T00:34:15;3.50;;;3.10;;
9481;SDS011;4779;48.062;11.672;2024-02-26T00:36:42;3.83;;;3.37;;
9481;SDS011;4779;48.062;11.672;2024-02-26T00:39:09;3.60;;;3.30;;
9481;SDS011;4779;48.062;11.672;2024-02-26T00:41:38;3.50;;;3.20;;
9481;SDS011;4779;48.062;11.672;2024-02-26T00:44:06;3.77;;;3.20;;
9481;SDS011;4779;48.062;11.672;2024-02-26T00:46:33;3.47;;;2.93;;
9481;SDS011;4779;48.062;11.672;2024-02-26T00:49:01;3.07;;;2.77;;
9481;SDS011;4779;48.062;11.672;2024-02-26T00:51:28;2.80;;;2.60;;
9481;SDS011;4779;48.062;11.672;2024-02-26T00:53:55;4.60;;;3.23;;
9481;SDS011;4779;48.062;11.672;2024-02-26T00:56:22;3.20;;;2.90;;
9481;SDS011;4779;48.062;11.672;2024-02-26T00:58:49;2.93;;;2.73;;
9481;SDS011;4779;48.062;11.672;2024-02-26T01:01:17;3.10;;;2.73;;
9481;SDS011;4779;48.062;11.672;2024-02-26T01:03:45;3.67;;;3.10;;
9481;SDS011;4779;48.062;11.672;2024-02-26T01:06:13;2.90;;;2.60;;
9481;SDS011;4779;48.062;11.672;2024-02-26T01:08:40;3.67;;;3.00;;
9481;SDS011;4779;48.062;11.672;2024-02-26T01:11:07;3.60;;;2.80;;
9481;SDS011;4779;48.062;11.672;2024-02-26T01:13:34;3.67;;;2.93;;
9481;SDS011;4779;48.062;11.672;2024-02-26T01:16:01;2.80;;;2.60;;
9481;SDS011;4779;48.062;11.672;2024-02-26T01:18:28;3.17;;;2.50;;
9481;SDS011;4779;48.062;11.672;2024-02-26T01:20:55;2.80;;;2.60;;
9481;SDS011;4779;48.062;11.672;2024-02-26T01:23:24;4.27;;;2.50;;
9481;SDS011;4779;48.062;11.672;2024-02-26T01:25:51;2.90;;;2.60;;
9481;SDS011;4779;48.062;11.672;2024-02-26T01:28:18;2.73;;;2.53;;
9481;SDS011;4779;48.062;11.672;2024-02-26T01:30:45;2.80;;;2.60;;
9481;SDS011;4779;48.062;11.672;2024-02-26T01:33:12;3.23;;;2.50;;
9481;SDS011;4779;48.062;11.672;2024-02-26T01:35:39;3.27;;;2.90;;
9481;SDS011;4779;48.062;11.672;2024-02-26T01:38:06;2.97;;;2.57;;
9481;SDS011;4779;48.062;11.672;2024-02-26T01:40:35;2.70;;;2.50;;
9481;SDS011;4779;48.062;11.672;2024-02-26T01:43:02;2.90;;;2.70;;
9481;SDS011;4779;48.062;11.672;2024-02-26T01:45:29;3.07;;;2.77;;
9481;SDS011;4779;48.062;11.672;2024-02-26T01:47:56;3.00;;;2.70;;
9481;SDS011;4779;48.062;11.672;2024-02-26T01:50:23;2.70;;;2.50;;
9481;SDS011;4779;48.062;11.672;2024-02-26T01:52:51;2.97;;;2.60;;
9481;SDS011;4779;48.062;11.672;2024-02-26T01:55:20;4.00;;;2.57;;
9481;SDS011;4779;48.062;11.672;2024-02-26T01:57:50;3.20;;;2.90;;
9481;SDS011;4779;48.062;11.672;2024-02-26T02:00:19;3.03;;;2.53;;
9481;SDS011;4779;48.062;11.672;2024-02-26T02:02:47;2.43;;;2.23;;
9481;SDS011;4779;48.062;11.672;2024-02-26T02:05:14;2.87;;;2.67;;
9481;SDS011;4779;48.062;11.672;2024-02-26T02:07:43;2.73;;;2.53;;
9481;SDS011;4779;48.062;11.672;2024-02-26T02:10:11;3.37;;;3.00;;
9481;SDS011;4779;48.062;11.672;2024-02-26T02:12:39;2.90;;;2.60;;
9481;SDS011;4779;48.062;11.672;2024-02-26T02:15:08;2.87;;;2.67;;
9481;SDS011;4779;48.062;11.672;2024-02-26T02:17:35;2.73;;;2.43;;
9481;SDS011;4779;48.062;11.672;2024-02-26T02:20:02;3.17;;;2.77;;
9481;SDS011;4779;48.062;11.672;2024-02-26T02:22:31;2.90;;;2.60;;
9481;SDS011;4779;48.062;11.672;2024-02-26T02:24:58;2.97;;;2.67;;
9481;SDS011;4779;48.062;11.672;2024-02-26T02:27:26;2.70;;;2.50;;
9481;SDS011;4779;48.062;11.672;2024-02-26T02:29:54;3.07;;;2.50;;
9481;SDS011;4779;48.062;11.672;2024-02-26T02:32:21;2.70;;;2.50;;
9481;SDS011;4779;48.062;11.672;2024-02-26T02:34:49;3.17;;;2.63;;
9481;SDS011;4779;48.062;11.672;2024-02-26T02:37:16;2.70;;;2.40;;
9481;SDS011;4779;48.062;11.672;2024-02-26T02:39:44;4.40;;;2.70;;
9481;SDS011;4779;48.062;11.672;2024-02-26T02:42:12;2.77;;;2.57;;
9481;SDS011;4779;48.062;11.672;2024-02-26T02:44:39;2.60;;;2.40;;
9481;SDS011;4779;48.062;11.672;2024-02-26T02:47:07;4.23;;;2.33;;
9481;SDS011;4779;48.062;11.672;2024-02-26T02:49:34;2.47;;;2.27;;
9481;SDS011;4779;48.062;11.672;2024-02-26T02:52:02;2.50;;;2.30;;
9481;SDS011;4779;48.062;11.672;2024-02-26T02:54:29;2.80;;;2.50;;
9481;SDS011;4779;48.062;11.672;2024-02-26T02:56:57;2.60;;;2.40;;
9481;SDS011;4779;48.062;11.672;2024-02-26T02:59:25;2.30;;;2.13;;
9481;SDS011;4779;48.062;11.672;2024-02-26T03:01:52;2.50;;;2.30;;
9481;SDS011;4779;48.062;11.672;2024-02-26T03:04:19;2.83;;;2.33;;
9481;SDS011;4779;48.062;11.672;2024-02-26T03:06:46;2.63;;;2.40;;
9481;SDS011;4779;48.062;11.672;2024-02-26T03:09:13;2.47;;;2.27;;
9481;SDS011;4779;48.062;11.672;2024-02-26T03:11:40;2.67;;;2.47;;
9481;SDS011;4779;48.062;11.672;2024-02-26T03:14:08;2.60;;;2.40;;
9481;SDS011;4779;48.062;11.672;2024-02-26T03:16:35;3.27;;;2.40;;
9481;SDS011;4779;48.062;11.672;2024-02-26T03:19:02;2.90;;;2.50;;
9481;SDS011;4779;48.062;11.672;2024-02-26T03:21:30;2.40;;;2.20;;
9481;SDS011;4779;48.062;11.672;2024-02-26T03:23:57;2.33;;;2.13;;
9481;SDS011;4779;48.062;11.672;2024-02-26T03:26:24;2.30;;;2.17;;
9481;SDS011;4779;48.062;11.672;2024-02-26T03:28:51;2.17;;;2.07;;
9481;SDS011;4779;48.062;11.672;2024-02-26T03:31:19;2.30;;;2.10;;
9481;SDS011;4779;48.062;11.672;2024-02-26T03:33:49;2.23;;;2.03;;
9481;SDS011;4779;48.062;11.672;2024-02-26T03:36:16;2.97;;;2.33;;
9481;SDS011;4779;48.062;11.672;2024-02-26T03:38:43;1.80;;;1.70;;
9481;SDS011;4779;48.062;11.672;2024-02-26T03:41:10;2.00;;;1.90;;
9481;SDS011;4779;48.062;11.672;2024-02-26T03:43:37;2.17;;;1.97;;
9481;SDS011;4779;48.062;11.672;2024-02-26T03:46:06;2.43;;;2.10;;
9481;SDS011;4779;48.062;11.672;2024-02-26T03:48:35;2.33;;;2.07;;
9481;SDS011;4779;48.062;11.672;2024-02-26T03:51:02;2.90;;;1.90;;
9481;SDS011;4779;48.062;11.672;2024-02-26T03:53:30;2.00;;;1.87;;
9481;SDS011;4779;48.062;11.672;2024-02-26T03:55:57;2.20;;;2.00;;
9481;SDS011;4779;48.062;11.672;2024-02-26T03:58:24;2.00;;;1.80;;
9481;SDS011;4779;48.062;11.672;2024-02-26T04:00:51;2.40;;;2.03;;
9481;SDS011;4779;48.062;11.672;2024-02-26T04:03:18;2.40;;;1.90;;
9481;SDS011;4779;48.062;11.672;2024-02-26T04:05:46;1.90;;;1.80;;
9481;SDS011;4779;48.062;11.672;2024-02-26T04:08:13;1.97;;;1.83;;
9481;SDS011;4779;48.062;11.672;2024-02-26T04:10:40;1.80;;;1.70;;
9481;SDS011;4779;48.062;11.672;2024-02-26T04:13:07;2.40;;;2.10;;
9481;SDS011;4779;48.062;11.672;2024-02-26T04:15:34;2.40;;;2.20;;
9481;SDS011;4779;48.062;11.672;2024-02-26T04:18:02;4.53;;;2.87;;
9481;SDS011;4779;48.062;11.672;2024-02-26T04:20:29;3.40;;;2.83;;
9481;SDS011;4779;48.062;11.672;2024-02-26T04:22:57;3.30;;;2.60;;
9481;SDS011;4779;48.062;11.672;2024-02-26T04:25:24;3.20;;;2.47;;
9481;SDS011;4779;48.062;11.672;2024-02-26T04:27:51;2.20;;;2.00;;
9481;SDS011;4779;48.062;11.672;2024-02-26T04:30:19;2.20;;;2.00;;
9481;SDS011;4779;48.062;11.672;2024-02-26T04:32:46;2.43;;;2.23;;
9481;SDS011;4779;48.062;11.672;2024-02-26T04:35:13;1.70;;;1.60;;
9481;SDS011;4779;48.062;11.672;2024-02-26T04:37:40;2.30;;;1.97;;
9481;SDS011;4779;48.062;11.672;2024-02-26T04:40:09;2.20;;;2.00;;
9481;SDS011;4779;48.062;11.672;2024-02-26T04:42:37;1.80;;;1.70;;
9481;SDS011;4779;48.062;11.672;2024-02-26T04:45:04;2.17;;;1.80;;
9481;SDS011;4779;48.062;11.672;2024-02-26T04:47:32;1.97;;;1.80;;
9481;SDS011;4779;48.062;11.672;2024-02-26T04:49:59;2.30;;;2.10;;
9481;SDS011;4779;48.062;11.672;2024-02-26T04:52:27;2.37;;;1.90;;
9481;SDS011;4779;48.062;11.672;2024-02-26T04:54:54;2.93;;;1.80;;
9481;SDS011;4779;48.062;11.672;2024-02-26T04:57:22;1.67;;;1.57;;
9481;SDS011;4779;48.062;11.672;2024-02-26T04:59:49;2.10;;;1.90;;
9481;SDS011;4779;48.062;11.672;2024-02-26T05:02:16;1.73;;;1.60;;
9481;SDS011;4779;48.062;11.672;2024-02-26T05:04:43;1.93;;;1.77;;
9481;SDS011;4779;48.062;11.672;2024-02-26T05:07:10;2.63;;;1.80;;
9481;SDS011;4779;48.062;11.672;2024-02-26T05:09:38;1.70;;;1.60;;
9481;SDS011;4779;48.062;11.672;2024-02-26T05:12:05;1.80;;;1.50;;
9481;SDS011;4779;48.062;11.672;2024-02-26T05:14:33;2.10;;;1.87;;
9481;SDS011;4779;48.062;11.672;2024-02-26T05:17:00;2.80;;;1.83;;
9481;SDS011;4779;48.062;11.672;2024-02-26T05:19:27;2.00;;;1.80;;
9481;SDS011;4779;48.062;11.672;2024-02-26T05:21:54;2.60;;;1.70;;
9481;SDS011;4779;48.062;11.672;2024-02-26T05:24:22;1.67;;;1.57;;
9481;SDS011;4779;48.062;11.672;2024-02-26T05:26:49;1.97;;;1.40;;
9481;SDS011;4779;48.062;11.672;2024-02-26T05:29:16;1.43;;;1.30;;
9481;SDS011;4779;48.062;11.672;2024-02-26T05:31:44;2.47;;;1.60;;
9481;SDS011;4779;48.062;11.672;2024-02-26T05:34:11;1.80;;;1.70;;
9481;SDS011;4779;48.062;11.672;2024-02-26T05:36:38;3.70;;;1.50;;
9481;SDS011;4779;48.062;11.672;2024-02-26T05:39:05;1.57;;;1.40;;
9481;SDS011;4779;48.062;11.672;2024-02-26T05:41:32;1.53;;;1.43;;
9481;SDS011;4779;48.062;11.672;2024-02-26T05:43:59;1.70;;;1.60;;
9481;SDS011;4779;48.062;11.672;2024-02-26T05:46:27;2.17;;;1.77;;
9481;SDS011;4779;48.062;11.672;2024-02-26T05:48:55;1.63;;;1.53;;
9481;SDS011;4779;48.062;11.672;2024-02-26T05:51:22;1.70;;;1.60;;
9481;SDS011;4779;48.062;11.672;2024-02-26T05:53:49;2.13;;;1.90;;
9481;SDS011;4779;48.062;11.672;2024-02-26T05:56:20;2.03;;;1.50;;
9481;SDS011;4779;48.062;11.672;2024-02-26T05:58:47;2.00;;;1.80;;
9481;SDS011;4779;48.062;11.672;2024-02-26T06:01:16;2.20;;;1.93;;
9481;SDS011;4779;48.062;11.672;2024-02-26T06:03:44;2.77;;;2.00;;
9481;SDS011;4779;48.062;11.672;2024-02-26T06:06:12;2.07;;;1.80;;
9481;SDS011;4779;48.062;11.672;2024-02-26T06:08:40;1.40;;;1.30;;
9481;SDS011;4779;48.062;11.672;2024-02-26T06:11:07;1.83;;;1.60;;
9481;SDS011;4779;48.062;11.672;2024-02-26T06:13:34;4.37;;;1.80;;
9481;SDS011;4779;48.062;11.672;2024-02-26T06:16:04;2.13;;;1.73;;
9481;SDS011;4779;48.062;11.672;2024-02-26T06:18:31;2.23;;;1.70;;
9481;SDS011;4779;48.062;11.672;2024-02-26T06:21:08;1.93;;;1.60;;
9481;SDS011;4779;48.062;11.672;2024-02-26T06:23:40;4.13;;;2.10;;
9481;SDS011;4779;48.062;11.672;2024-02-26T06:26:07;1.70;;;1.60;;
9481;SDS011;4779;48.062;11.672;2024-02-26T06:28:35;2.60;;;1.70;;
9481;SDS011;4779;48.062;11.672;2024-02-26T06:31:05;5.03;;;2.00;;
9481;SDS011;4779;48.062;11.672;2024-02-26T06:33:32;2.30;;;1.40;;
9481;SDS011;4779;48.062;11.672;2024-02-26T06:35:59;1.73;;;1.50;;
9481;SDS011;4779;48.062;11.672;2024-02-26T06:38:27;2.20;;;1.97;;
9481;SDS011;4779;48.062;11.672;2024-02-26T06:40:55;1.97;;;1.60;;
9481;SDS011;4779;48.062;11.672;2024-02-26T06:43:22;1.50;;;1.40;;
9481;SDS011;4779;48.062;11.672;2024-02-26T06:45:50;4.00;;;1.60;;
9481;SDS011;4779;48.062;11.672;2024-02-26T06:48:18;1.83;;;1.43;;
9481;SDS011;4779;48.062;11.672;2024-02-26T06:50:45;3.00;;;1.80;;
9481;SDS011;4779;48.062;11.672;2024-02-26T06:53:12;1.63;;;1.30;;
9481;SDS011;4779;48.062;11.672;2024-02-26T06:55:39;4.90;;;1.70;;
9481;SDS011;4779;48.062;11.672;2024-02-26T06:58:08;4.13;;;1.80;;
9481;SDS011;4779;48.062;11.672;2024-02-26T07:00:35;1.83;;;1.57;;
9481;SDS011;4779;48.062;11.672;2024-02-26T07:03:02;4.07;;;1.97;;
9481;SDS011;4779;48.062;11.672;2024-02-26T07:05:30;2.07;;;1.67;;
9481;SDS011;4779;48.062;11.672;2024-02-26T07:07:57;2.93;;;2.13;;
9481;SDS011;4779;48.062;11.672;2024-02-26T07:10:24;3.07;;;1.83;;
9481;SDS011;4779;48.062;11.672;2024-02-26T07:12:51;2.20;;;2.00;;
9481;SDS011;4779;48.062;11.672;2024-02-26T07:15:19;2.93;;;2.67;;
9481;SDS011;4779;48.062;11.672;2024-02-26T07:17:46;3.30;;;2.30;;
9481;SDS011;4779;48.062;11.672;2024-02-26T07:20:14;2.90;;;2.27;;
9481;SDS011;4779;48.062;11.672;2024-02-26T07:22:43;2.37;;;2.07;;
9481;SDS011;4779;48.062;11.672;2024-02-26T07:25:10;1.90;;;1.80;;
9481;SDS011;4779;48.062;11.672;2024-02-26T07:27:38;4.33;;;2.30;;
9481;SDS011;4779;48.062;11.672;2024-02-26T07:30:06;4.57;;;2.50;;
9481;SDS011;4779;48.062;11.672;2024-02-26T07:32:35;1.97;;;1.77;;
9481;SDS011;4779;48.062;11.672;2024-02-26T07:35:03;2.83;;;1.80;;
9481;SDS011;4779;48.062;11.672;2024-02-26T07:37:30;1.97;;;1.80;;
9481;SDS011;4779;48.062;11.672;2024-02-26T07:39:57;4.20;;;1.97;;
9481;SDS011;4779;48.062;11.672;2024-02-26T07:42:24;3.73;;;1.60;;
9481;SDS011;4779;48.062;11.672;2024-02-26T07:44:51;2.07;;;1.83;;
9481;SDS011;4779;48.062;11.672;2024-02-26T07:47:19;3.33;;;2.13;;
9481;SDS011;4779;48.062;11.672;2024-02-26T07:49:47;4.37;;;2.90;;
9481;SDS011;4779;48.062;11.672;2024-02-26T07:52:14;5.93;;;3.10;;
9481;SDS011;4779;48.062;11.672;2024-02-26T07:54:41;4.80;;;3.00;;
9481;SDS011;4779;48.062;11.672;2024-02-26T07:57:08;4.57;;;3.50;;
9481;SDS011;4779;48.062;11.672;2024-02-26T07:59:35;5.03;;;3.70;;
9481;SDS011;4779;48.062;11.672;2024-02-26T08:02:02;4.57;;;3.13;;
9481;SDS011;4779;48.062;11.672;2024-02-26T08:04:30;3.13;;;2.63;;
9481;SDS011;4779;48.062;11.672;2024-02-26T08:06:59;2.33;;;1.80;;
9481;SDS011;4779;48.062;11.672;2024-02-26T08:09:26;2.13;;;1.90;;
9481;SDS011;4779;48.062;11.672;2024-02-26T08:11:53;1.70;;;1.60;;
9481;SDS011;4779;48.062;11.672;2024-02-26T08:14:20;1.70;;;1.60;;
9481;SDS011;4779;48.062;11.672;2024-02-26T08:16:47;1.83;;;1.67;;
9481;SDS011;4779;48.062;11.672;2024-02-26T08:19:15;2.07;;;1.87;;
9481;SDS011;4779;48.062;11.672;2024-02-26T08:21:42;2.50;;;2.00;;
9481;SDS011;4779;48.062;11.672;2024-02-26T08:24:11;3.00;;;1.60;;
9481;SDS011;4779;48.062;11.672;2024-02-26T08:26:38;2.73;;;1.90;;
9481;SDS011;4779;48.062;11.672;2024-02-26T08:29:05;2.67;;;2.27;;
9481;SDS011;4779;48.062;11.672;2024-02-26T08:31:32;3.13;;;2.37;;
9481;SDS011;4779;48.062;11.672;2024-02-26T08:34:02;5.10;;;2.40;;
9481;SDS011;4779;48.062;11.672;2024-02-26T08:36:29;3.00;;;2.70;;
9481;SDS011;4779;48.062;11.672;2024-02-26T08:38:57;3.13;;;2.73;;
9481;SDS011;4779;48.062;11.672;2024-02-26T08:41:26;2.57;;;2.23;;
9481;SDS011;4779;48.062;11.672;2024-02-26T08:43:53;3.63;;;2.60;;
9481;SDS011;4779;48.062;11.672;2024-02-26T08:46:20;2.73;;;2.10;;
9481;SDS011;4779;48.062;11.672;2024-02-26T08:48:47;2.57;;;2.10;;
9481;SDS011;4779;48.062;11.672;2024-02-26T08:51:14;4.50;;;2.20;;
9481;SDS011;4779;48.062;11.672;2024-02-26T08:53:42;3.23;;;2.20;;
9481;SDS011;4779;48.062;11.672;2024-02-26T08:56:09;3.73;;;2.00;;
9481;SDS011;4779;48.062;11.672;2024-02-26T08:58:43;3.40;;;1.80;;
9481;SDS011;4779;48.062;11.672;2024-02-26T09:01:11;3.60;;;2.17;;
9481;SDS011;4779;48.062;11.672;2024-02-26T09:03:38;3.07;;;1.87;;
9481;SDS011;4779;48.062;11.672;2024-02-26T09:06:06;2.43;;;1.80;;
9481;SDS011;4779;48.062;11.672;2024-02-26T09:08:33;1.77;;;1.13;;
9481;SDS011;4779;48.062;11.672;2024-02-26T09:11:01;1.90;;;1.30;;
9481;SDS011;4779;48.062;11.672;2024-02-26T09:13:28;0.90;;;0.90;;
9481;SDS011;4779;48.062;11.672;2024-02-26T09:15:57;1.53;;;1.23;;
9481;SDS011;4779;48.062;11.672;2024-02-26T09:18:24;0.80;;;0.80;;
9481;SDS011;4779;48.062;11.672;2024-02-26T09:20:52;1.20;;;1.00;;
9481;SDS011;4779;48.062;11.672;2024-02-26T09:23:19;1.53;;;1.23;;
9481;SDS011;4779;48.062;11.672;2024-02-26T09:25:46;1.27;;;1.17;;
9481;SDS011;4779;48.062;11.672;2024-02-26T09:28:16;1.20;;;1.10;;
9481;SDS011;4779;48.062;11.672;2024-02-26T09:30:43;1.20;;;0.97;;
9481;SDS011;4779;48.062;11.672;2024-02-26T09:33:13;0.80;;;0.80;;
9481;SDS011;4779;48.062;11.672;2024-02-26T09:35:40;1.13;;;1.00;;
9481;SDS011;4779;48.062;11.672;2024-02-26T09:38:07;2.00;;;1.10;;
9481;SDS011;4779;48.062;11.672;2024-02-26T09:40:34;3.07;;;1.50;;
9481;SDS011;4779;48.062;11.672;2024-02-26T09:43:02;1.57;;;1.30;;
9481;SDS011;4779;48.062;11.672;2024-02-26T09:45:32;1.60;;;1.50;;
9481;SDS011;4779;48.062;11.672;2024-02-26T09:48:01;1.70;;;1.60;;
9481;SDS011;4779;48.062;11.672;2024-02-26T09:50:32;1.60;;;1.50;;
9481;SDS011;4779;48.062;11.672;2024-02-26T09:52:59;1.47;;;1.37;;
9481;SDS011;4779;48.062;11.672;2024-02-26T09:55:27;1.50;;;1.40;;
9481;SDS011;4779;48.062;11.672;2024-02-26T09:57:54;1.53;;;1.40;;
9481;SDS011;4779;48.062;11.672;2024-02-26T10:00:23;3.13;;;1.70;;
9481;SDS011;4779;48.062;11.672;2024-02-26T10:02:53;1.67;;;1.43;;
9481;SDS011;4779;48.062;11.672;2024-02-26T10:05:23;1.43;;;1.33;;
9481;SDS011;4779;48.062;11.672;2024-02-26T10:07:53;1.70;;;1.60;;
9481;SDS011;4779;48.062;11.672;2024-02-26T10:10:21;2.20;;;1.60;;
9481;SDS011;4779;48.062;11.672;2024-02-26T10:12:49;1.97;;;1.30;;
9481;SDS011;4779;48.062;11.672;2024-02-26T10:15:16;3.90;;;1.77;;
9481;SDS011;4779;48.062;11.672;2024-02-26T10:17:43;2.20;;;1.87;;
9481;SDS011;4779;48.062;11.672;2024-02-26T10:20:11;2.27;;;1.40;;
9481;SDS011;4779;48.062;11.672;2024-02-26T10:22:40;1.33;;;1.20;;
9481;SDS011;4779;48.062;11.672;2024-02-26T10:25:15;1.30;;;1.20;;
9481;SDS011;4779;48.062;11.672;2024-02-26T10:27:42;2.53;;;1.17;;
9481;SDS011;4779;48.062;11.672;2024-02-26T10:30:16;1.17;;;1.13;;
9481;SDS011;4779;48.062;11.672;2024-02-26T10:32:44;1.47;;;1.37;;
9481;SDS011;4779;48.062;11.672;2024-02-26T10:35:12;1.53;;;1.30;;
9481;SDS011;4779;48.062;11.672;2024-02-26T10:37:40;1.30;;;1.20;;
9481;SDS011;4779;48.062;11.672;2024-02-26T10:40:10;2.30;;;1.20;;
9481;SDS011;4779;48.062;11.672;2024-02-26T10:42:39;1.00;;;1.00;;
9481;SDS011;4779;48.062;11.672;2024-02-26T10:45:07;1.00;;;0.97;;
9481;SDS011;4779;48.062;11.672;2024-02-26T10:47:35;1.67;;;0.97;;
9481;SDS011;4779;48.062;11.672;2024-02-26T10:50:03;1.50;;;1.23;;
9481;SDS011;4779;48.062;11.672;2024-02-26T10:52:32;1.30;;;1.20;;
9481;SDS011;4779;48.062;11.672;2024-02-26T10:55:07;2.07;;;1.00;;
9481;SDS011;4779;48.062;11.672;2024-02-26T11:01:11;0.97;;;0.97;;
9481;SDS011;4779;48.062;11.672;2024-02-26T11:03:42;2.37;;;1.30;;
9481;SDS011;4779;48.062;11.672;2024-02-26T11:06:09;2.10;;;0.93;;
9481;SDS011;4779;48.062;11.672;2024-02-26T11:08:38;2.60;;;1.17;;
9481;SDS011;4779;48.062;11.672;2024-02-26T11:11:05;2.40;;;1.20;;
9481;SDS011;4779;48.062;11.672;2024-02-26T11:13:32;2.77;;;1.00;;
9481;SDS011;4779;48.062;11.672;2024-02-26T11:16:05;1.40;;;1.30;;
9481;SDS011;4779;48.062;11.672;2024-02-26T11:18:33;1.37;;;1.27;;
9481;SDS011;4779;48.062;11.672;2024-02-26T11:21:02;1.97;;;1.33;;
9481;SDS011;4779;48.062;11.672;2024-02-26T11:23:29;1.40;;;1.30;;
9481;SDS011;4779;48.062;11.672;2024-02-26T11:26:00;1.80;;;1.50;;
9481;SDS011;4779;48.062;11.672;2024-02-26T11:28:28;1.83;;;1.60;;
9481;SDS011;4779;48.062;11.672;2024-02-26T11:30:57;1.67;;;1.57;;
9481;SDS011;4779;48.062;11.672;2024-02-26T11:33:27;2.57;;;1.90;;
9481;SDS011;4779;48.062;11.672;2024-02-26T11:35:54;1.87;;;1.67;;
9481;SDS011;4779;48.062;11.672;2024-02-26T11:38:23;2.63;;;1.80;;
9481;SDS011;4779;48.062;11.672;2024-02-26T11:40:52;2.27;;;1.53;;
9481;SDS011;4779;48.062;11.672;2024-02-26T11:43:22;2.40;;;1.60;;
9481;SDS011;4779;48.062;11.672;2024-02-26T11:45:50;2.93;;;1.80;;
9481;SDS011;4779;48.062;11.672;2024-02-26T11:48:21;1.90;;;1.80;;
9481;SDS011;4779;48.062;11.672;2024-02-26T11:50:52;3.70;;;2.03;;
9481;SDS011;4779;48.062;11.672;2024-02-26T11:53:20;3.17;;;1.90;;
9481;SDS011;4779;48.062;11.672;2024-02-26T11:55:48;1.80;;;1.57;;
9481;SDS011;4779;48.062;11.672;2024-02-26T11:58:15;1.80;;;1.58;;
9481;SDS011;4779;48.062;11.672;2024-02-26T12:00:42;1.73;;;1.30;;
9481;SDS011;4779;48.062;11.672;2024-02-26T12:03:09;0.90;;;0.90;;
9481;SDS011;4779;48.062;11.672;2024-02-26T12:05:38;1.40;;;0.90;;
9481;SDS011;4779;48.062;11.672;2024-02-26T12:08:07;2.10;;;0.98;;
9481;SDS011;4779;48.062;11.672;2024-02-26T12:10:35;1.10;;;1.00;;
9481;SDS011;4779;48.062;11.672;2024-02-26T12:13:04;1.15;;;1.10;;
9481;SDS011;4779;48.062;11.672;2024-02-26T12:15:34;1.55;;;0.93;;
9481;SDS011;4779;48.062;11.672;2024-02-26T12:18:04;1.23;;;1.00;;
9481;SDS011;4779;48.062;11.672;2024-02-26T12:20:35;1.13;;;1.00;;
9481;SDS011;4779;48.062;11.672;2024-02-26T12:23:02;1.20;;;1.10;;
9481;SDS011;4779;48.062;11.672;2024-02-26T12:25:31;1.38;;;1.27;;
9481;SDS011;4779;48.062;11.672;2024-02-26T12:27:59;1.08;;;1.02;;
9481;SDS011;4779;48.062;11.672;2024-02-26T12:30:26;1.00;;;0.90;;
9481;SDS011;4779;48.062;11.672;2024-02-26T12:32:56;1.67;;;0.82;;
9481;SDS011;4779;48.062;11.672;2024-02-26T12:35:25;1.10;;;1.00;;
9481;SDS011;4779;48.062;11.672;2024-02-26T12:37:53;1.02;;;0.70;;
9481;SDS011;4779;48.062;11.672;2024-02-26T12:40:21;1.42;;;0.70;;
9481;SDS011;4779;48.062;11.672;2024-02-26T12:42:50;3.40;;;0.82;;
9481;SDS011;4779;48.062;11.672;2024-02-26T12:45:18;1.20;;;0.90;;
9481;SDS011;4779;48.062;11.672;2024-02-26T12:47:45;0.73;;;0.68;;
9481;SDS011;4779;48.062;11.672;2024-02-26T12:50:14;0.70;;;0.70;;
9481;SDS011;4779;48.062;11.672;2024-02-26T12:52:43;0.60;;;0.60;;
9481;SDS011;4779;48.062;11.672;2024-02-26T12:55:13;2.22;;;1.00;;
9481;SDS011;4779;48.062;11.672;2024-02-26T12:57:43;0.60;;;0.60;;
9481;SDS011;4779;48.062;11.672;2024-02-26T13:00:13;0.50;;;0.50;;
9481;SDS011;4779;48.062;11.672;2024-02-26T13:02:42;0.50;;;0.50;;
9481;SDS011;4779;48.062;11.672;2024-02-26T13:05:11;0.73;;;0.73;;
9481;SDS011;4779;48.062;11.672;2024-02-26T13:07:40;0.57;;;0.57;;
9481;SDS011;4779;48.062;11.672;2024-02-26T13:10:08;2.15;;;0.70;;
9481;SDS011;4779;48.062;11.672;2024-02-26T13:12:37;2.10;;;0.60;;
9481;SDS011;4779;48.062;11.672;2024-02-26T13:15:04;2.25;;;0.80;;
9481;SDS011;4779;48.062;11.672;2024-02-26T13:17:40;0.75;;;0.57;;
9481;SDS011;4779;48.062;11.672;2024-02-26T13:20:08;0.40;;;0.40;;
9481;SDS011;4779;48.062;11.672;2024-02-26T13:22:36;0.55;;;0.55;;
9481;SDS011;4779;48.062;11.672;2024-02-26T13:25:04;0.60;;;0.60;;
9481;SDS011;4779;48.062;11.672;2024-02-26T13:27:32;1.52;;;0.52;;
9481;SDS011;4779;48.062;11.672;2024-02-26T13:30:03;0.95;;;0.70;;
9481;SDS011;4779;48.062;11.672;2024-02-26T13:32:32;0.82;;;0.82;;
9481;SDS011;4779;48.062;11.672;2024-02-26T13:35:08;1.45;;;1.13;;
9481;SDS011;4779;48.062;11.672;2024-02-26T13:37:37;4.18;;;1.38;;
9481;SDS011;4779;48.062;11.672;2024-02-26T13:40:06;2.63;;;1.90;;
9481;SDS011;4779;48.062;11.672;2024-02-26T13:42:34;2.95;;;2.30;;
9481;SDS011;4779;48.062;11.672;2024-02-26T13:45:02;5.80;;;2.58;;
9481;SDS011;4779;48.062;11.672;2024-02-26T13:47:31;5.00;;;2.30;;
9481;SDS011;4779;48.062;11.672;2024-02-26T13:49:58;3.38;;;2.03;;
9481;SDS011;4779;48.062;11.672;2024-02-26T13:52:28;2.88;;;2.30;;
9481;SDS011;4779;48.062;11.672;2024-02-26T13:54:57;4.22;;;2.47;;
9481;SDS011;4779;48.062;11.672;2024-02-26T13:57:24;2.95;;;2.72;;
9481;SDS011;4779;48.062;11.672;2024-02-26T13:59:51;3.40;;;2.60;;
9481;SDS011;4779;48.062;11.672;2024-02-26T14:02:18;3.03;;;2.63;;
9481;SDS011;4779;48.062;11.672;2024-02-26T14:04:46;3.38;;;2.58;;
9481;SDS011;4779;48.062;11.672;2024-02-26T14:07:13;4.45;;;3.33;;
9481;SDS011;4779;48.062;11.672;2024-02-26T14:09:43;3.38;;;2.90;;
9481;SDS011;4779;48.062;11.672;2024-02-26T14:12:10;4.90;;;3.05;;
9481;SDS011;4779;48.062;11.672;2024-02-26T14:14:38;3.30;;;2.92;;
9481;SDS011;4779;48.062;11.672;2024-02-26T14:17:07;4.50;;;2.70;;
9481;SDS011;4779;48.062;11.672;2024-02-26T14:19:34;3.10;;;2.80;;
9481;SDS011;4779;48.062;11.672;2024-02-26T14:22:03;3.28;;;2.80;;
9481;SDS011;4779;48.062;11.672;2024-02-26T14:24:29;3.13;;;2.83;;
9481;SDS011;4779;48.062;11.672;2024-02-26T14:26:57;3.30;;;2.57;;
9481;SDS011;4779;48.062;11.672;2024-02-26T14:29:24;3.13;;;2.90;;
9481;SDS011;4779;48.062;11.672;2024-02-26T14:31:51;3.97;;;2.80;;
9481;SDS011;4779;48.062;11.672;2024-02-26T14:34:21;3.07;;;2.70;;
9481;SDS011;4779;48.062;11.672;2024-02-26T14:36:48;5.80;;;2.90;;
9481;SDS011;4779;48.062;11.672;2024-02-26T14:39:15;4.67;;;3.37;;
9481;SDS011;4779;48.062;11.672;2024-02-26T14:41:42;5.20;;;3.00;;
9481;SDS011;4779;48.062;11.672;2024-02-26T14:44:11;4.60;;;3.03;;
9481;SDS011;4779;48.062;11.672;2024-02-26T14:46:38;5.40;;;3.10;;
9481;SDS011;4779;48.062;11.672;2024-02-26T14:49:05;6.83;;;3.73;;
9481;SDS011;4779;48.062;11.672;2024-02-26T14:51:32;5.20;;;3.40;;
9481;SDS011;4779;48.062;11.672;2024-02-26T14:53:59;3.93;;;3.00;;
9481;SDS011;4779;48.062;11.672;2024-02-26T14:56:27;5.20;;;3.50;;
9481;SDS011;4779;48.062;11.672;2024-02-26T14:58:54;5.80;;;3.10;;
9481;SDS011;4779;48.062;11.672;2024-02-26T15:01:23;3.43;;;2.83;;
9481;SDS011;4779;48.062;11.672;2024-02-26T15:03:51;5.10;;;3.20;;
9481;SDS011;4779;48.062;11.672;2024-02-26T15:06:18;3.33;;;3.00;;
9481;SDS011;4779;48.062;11.672;2024-02-26T15:08:45;3.40;;;2.70;;